Strona główna
METAR-TAF:

METAR-TAF

Lotnisko :

Gaspe, Quebec, Kanada

Szerokość geograficzna: 48-46N, Długość geograficzna: 064-29W, wysokość: 33 m

Aktualna obserwacja pogody

Raport powstał 50 minut temu, godzina 00:00 UTC
Wiatr 3 kt od północ
Temperatura -1°C
Wilgotność 80%
Ciśnienie 1018 hPa
Widzialność: 24.1 km
Rozproszone chmury na wysokości 5000 ft
Przerywane chmury na wysokości 7500 ft

METAR: CYGP 050000Z 36003KT 15SM SCT050 BKN075 M01/M04 A3005 RMK SC3AC3 SLP178

czas: 20:50 (00:50 UTC)

Prognoza

Raport powstał 5 godziny i 12 minut temu, godzina 19:38 UTC
Prognoza ważna od 04 godzina 20 UTC do 05 godzina 08 UTC
Wiatr 8 kt od wschód
Widzialność: 10 km
Przerywane chmury na wysokości 4000 ft
Od 05 godzina 0200 UTC
Wiatr 5 kt od zachód
Widzialność: 10 km
Przerywane chmury na wysokości 2000 ft
Prawdopodobieństwo 30%
od 05 godzina 04 UTC do 05 godzina 08 UTC
Widzialność: 1.6 km
zamglenie

TAF: CYGP 041938Z 0420/0508 09008KT P6SM BKN040 FM050200 27005KT P6SM BKN020 PROB30 0504/0508 1SM BR RMK NXT FCST BY 050200Z

Obserwacja i prognoza pogody dla ponad 4000 lotnisk (raport METAR i TAF).

Dostępne stacje oznaczono żółtymi i czerwonymi punktami na mapie.

Najedź kursorem aby zobaczyć nazwę stacji.

Kliknij aby zobaczyć obserwacje i prognozy pogody.

Aby zmienić mapę: kliknij na zielony przycisk z czarnym krzyżykiem, aby powiększyć; na zielony przycisk z myślnikiem, aby pomniejszyć; na zielone strzałki, aby przejść do map sąsiednich.


METAR-TAF: